KFKN/FKN METAR and TAF weather

Enter ICAO airport designator
Station Type Date Time Source
KFKN METAR 2022/12/05 15:35 UTC NOAA

KFKN 051535Z AUTO 04004KT 10SM CLR 08/01 A3029 RMK AO2 T00750008


Station Type Date Time Source
KFKN Decoded METAR 2022/12/05 15:35 UTC NOAA

Franklin / J B Rose, VA, United States (KFKN) 36-42N 076-54W
Dec 05, 2022 - 10:35 AM EST / 2022.12.05 1535 UTC
Wind: from the NE (040 degrees) at 5 MPH (4 KT):0
Visibility: 10 mile(s):0
Sky conditions: clear
Temperature: 45.5 F (7.5 C)
Dew Point: 33.4 F (0.8 C)
Relative Humidity: 62%
Pressure (altimeter): 30.29 in. Hg (1025 hPa)
ob: KFKN 051535Z AUTO 04004KT 10SM CLR 08/01 A3029 RMK AO2 T00750008
cycle: 15

Station Type Date Time Source
KFKN TAF UTC NOAA

Error!

Example: see airport list